sensor_id;sensor_type;location;lat;lon;timestamp;P1;durP1;ratioP1;P2;durP2;ratioP2
39502;SDS011;26970;49.900;10.774;2022-09-28T00:01:51;7.10;;;3.58;;
39502;SDS011;26970;49.900;10.774;2022-09-28T00:04:17;7.65;;;4.20;;
39502;SDS011;26970;49.900;10.774;2022-09-28T00:06:44;9.93;;;3.80;;
39502;SDS011;26970;49.900;10.774;2022-09-28T00:09:11;8.10;;;4.00;;
39502;SDS011;26970;49.900;10.774;2022-09-28T00:11:40;9.80;;;4.45;;
39502;SDS011;26970;49.900;10.774;2022-09-28T00:14:07;8.38;;;3.60;;
39502;SDS011;26970;49.900;10.774;2022-09-28T00:16:36;10.95;;;3.92;;
39502;SDS011;26970;49.900;10.774;2022-09-28T00:19:04;6.50;;;3.10;;
39502;SDS011;26970;49.900;10.774;2022-09-28T00:21:31;11.50;;;3.63;;
39502;SDS011;26970;49.900;10.774;2022-09-28T00:23:59;7.50;;;3.53;;
39502;SDS011;26970;49.900;10.774;2022-09-28T00:29:24;9.30;;;3.10;;
39502;SDS011;26970;49.900;10.774;2022-09-28T00:31:55;7.03;;;3.50;;
39502;SDS011;26970;49.900;10.774;2022-09-28T00:36:55;6.88;;;3.55;;
39502;SDS011;26970;49.900;10.774;2022-09-28T00:39:21;6.03;;;3.22;;
39502;SDS011;26970;49.900;10.774;2022-09-28T00:41:47;7.07;;;3.45;;
39502;SDS011;26970;49.900;10.774;2022-09-28T00:49:27;7.25;;;3.20;;
39502;SDS011;26970;49.900;10.774;2022-09-28T00:51:58;6.40;;;3.55;;
39502;SDS011;26970;49.900;10.774;2022-09-28T00:54:24;6.85;;;4.65;;
39502;SDS011;26970;49.900;10.774;2022-09-28T00:56:50;7.03;;;3.85;;
39502;SDS011;26970;49.900;10.774;2022-09-28T00:59:16;6.85;;;4.32;;
39502;SDS011;26970;49.900;10.774;2022-09-28T01:01:41;7.72;;;4.30;;
39502;SDS011;26970;49.900;10.774;2022-09-28T01:04:07;8.93;;;4.25;;
39502;SDS011;26970;49.900;10.774;2022-09-28T01:06:34;11.18;;;4.75;;
39502;SDS011;26970;49.900;10.774;2022-09-28T01:09:03;8.18;;;4.40;;
39502;SDS011;26970;49.900;10.774;2022-09-28T01:11:34;10.18;;;4.82;;
39502;SDS011;26970;49.900;10.774;2022-09-28T01:14:01;9.48;;;4.68;;
39502;SDS011;26970;49.900;10.774;2022-09-28T01:16:34;11.00;;;4.22;;
39502;SDS011;26970;49.900;10.774;2022-09-28T01:19:23;9.23;;;4.88;;
39502;SDS011;26970;49.900;10.774;2022-09-28T01:22:22;7.00;;;4.10;;
39502;SDS011;26970;49.900;10.774;2022-09-28T01:25:06;10.98;;;4.30;;
39502;SDS011;26970;49.900;10.774;2022-09-28T01:27:38;9.85;;;4.00;;
39502;SDS011;26970;49.900;10.774;2022-09-28T01:30:16;10.70;;;4.25;;
39502;SDS011;26970;49.900;10.774;2022-09-28T01:35:34;6.88;;;3.22;;
39502;SDS011;26970;49.900;10.774;2022-09-28T01:38:08;6.75;;;4.15;;
39502;SDS011;26970;49.900;10.774;2022-09-28T01:40:41;5.55;;;3.22;;
39502;SDS011;26970;49.900;10.774;2022-09-28T01:43:21;5.00;;;3.28;;
39502;SDS011;26970;49.900;10.774;2022-09-28T01:48:31;4.80;;;3.00;;
39502;SDS011;26970;49.900;10.774;2022-09-28T01:53:56;8.70;;;3.08;;
39502;SDS011;26970;49.900;10.774;2022-09-28T01:56:27;4.90;;;2.90;;
39502;SDS011;26970;49.900;10.774;2022-09-28T01:59:05;7.20;;;2.90;;
39502;SDS011;26970;49.900;10.774;2022-09-28T02:04:35;5.35;;;2.90;;
39502;SDS011;26970;49.900;10.774;2022-09-28T02:09:58;7.88;;;2.92;;
39502;SDS011;26970;49.900;10.774;2022-09-28T02:12:30;6.25;;;3.10;;
39502;SDS011;26970;49.900;10.774;2022-09-28T02:15:16;12.43;;;3.17;;
39502;SDS011;26970;49.900;10.774;2022-09-28T02:17:54;7.53;;;3.67;;
39502;SDS011;26970;49.900;10.774;2022-09-28T02:20:20;6.93;;;3.08;;
39502;SDS011;26970;49.900;10.774;2022-09-28T02:22:54;5.68;;;3.13;;
39502;SDS011;26970;49.900;10.774;2022-09-28T02:25:29;8.57;;;3.05;;
39502;SDS011;26970;49.900;10.774;2022-09-28T02:28:13;9.07;;;3.25;;
39502;SDS011;26970;49.900;10.774;2022-09-28T02:30:40;5.30;;;2.70;;
39502;SDS011;26970;49.900;10.774;2022-09-28T02:33:19;8.63;;;3.30;;
39502;SDS011;26970;49.900;10.774;2022-09-28T02:35:48;4.53;;;3.08;;
39502;SDS011;26970;49.900;10.774;2022-09-28T02:38:14;11.15;;;3.30;;
39502;SDS011;26970;49.900;10.774;2022-09-28T02:40:41;7.53;;;3.10;;
39502;SDS011;26970;49.900;10.774;2022-09-28T02:43:15;6.68;;;3.20;;
39502;SDS011;26970;49.900;10.774;2022-09-28T02:48:46;4.30;;;2.58;;
39502;SDS011;26970;49.900;10.774;2022-09-28T02:54:03;6.82;;;3.22;;
39502;SDS011;26970;49.900;10.774;2022-09-28T02:56:48;6.30;;;2.80;;
39502;SDS011;26970;49.900;10.774;2022-09-28T03:02:22;9.50;;;2.90;;
39502;SDS011;26970;49.900;10.774;2022-09-28T03:05:14;4.40;;;2.65;;
39502;SDS011;26970;49.900;10.774;2022-09-28T03:07:59;7.82;;;2.55;;
39502;SDS011;26970;49.900;10.774;2022-09-28T03:12:59;5.63;;;2.33;;
39502;SDS011;26970;49.900;10.774;2022-09-28T03:17:52;5.13;;;2.90;;
39502;SDS011;26970;49.900;10.774;2022-09-28T03:20:18;3.08;;;2.33;;
39502;SDS011;26970;49.900;10.774;2022-09-28T03:22:44;5.47;;;2.42;;
39502;SDS011;26970;49.900;10.774;2022-09-28T03:25:10;5.57;;;2.97;;
39502;SDS011;26970;49.900;10.774;2022-09-28T03:27:36;5.53;;;2.60;;
39502;SDS011;26970;49.900;10.774;2022-09-28T03:30:03;4.13;;;2.53;;
39502;SDS011;26970;49.900;10.774;2022-09-28T03:32:29;4.47;;;2.55;;
39502;SDS011;26970;49.900;10.774;2022-09-28T03:34:54;3.88;;;2.70;;
39502;SDS011;26970;49.900;10.774;2022-09-28T03:37:20;3.55;;;2.50;;
39502;SDS011;26970;49.900;10.774;2022-09-28T03:39:46;3.65;;;2.60;;
39502;SDS011;26970;49.900;10.774;2022-09-28T03:42:12;5.00;;;3.00;;
39502;SDS011;26970;49.900;10.774;2022-09-28T03:44:37;5.13;;;2.60;;
39502;SDS011;26970;49.900;10.774;2022-09-28T03:47:03;3.97;;;2.60;;
39502;SDS011;26970;49.900;10.774;2022-09-28T03:49:28;4.90;;;2.50;;
39502;SDS011;26970;49.900;10.774;2022-09-28T03:51:54;3.05;;;2.30;;
39502;SDS011;26970;49.900;10.774;2022-09-28T03:54:19;5.75;;;2.50;;
39502;SDS011;26970;49.900;10.774;2022-09-28T03:56:45;3.90;;;2.35;;
39502;SDS011;26970;49.900;10.774;2022-09-28T03:59:11;5.28;;;2.30;;
39502;SDS011;26970;49.900;10.774;2022-09-28T04:01:36;3.83;;;2.50;;
39502;SDS011;26970;49.900;10.774;2022-09-28T04:04:02;4.88;;;2.67;;
39502;SDS011;26970;49.900;10.774;2022-09-28T04:06:27;5.22;;;2.40;;
39502;SDS011;26970;49.900;10.774;2022-09-28T04:08:53;3.38;;;2.47;;
39502;SDS011;26970;49.900;10.774;2022-09-28T04:11:18;3.78;;;2.72;;
39502;SDS011;26970;49.900;10.774;2022-09-28T04:13:46;5.45;;;2.35;;
39502;SDS011;26970;49.900;10.774;2022-09-28T04:16:13;5.35;;;2.58;;
39502;SDS011;26970;49.900;10.774;2022-09-28T04:18:40;4.47;;;2.40;;
39502;SDS011;26970;49.900;10.774;2022-09-28T04:21:07;4.53;;;2.55;;
39502;SDS011;26970;49.900;10.774;2022-09-28T04:23:34;5.53;;;2.42;;
39502;SDS011;26970;49.900;10.774;2022-09-28T04:26:02;4.50;;;2.28;;
39502;SDS011;26970;49.900;10.774;2022-09-28T04:28:29;3.13;;;2.22;;
39502;SDS011;26970;49.900;10.774;2022-09-28T04:31:13;4.15;;;2.38;;
39502;SDS011;26970;49.900;10.774;2022-09-28T04:33:41;5.60;;;2.50;;
39502;SDS011;26970;49.900;10.774;2022-09-28T04:36:07;3.58;;;2.50;;
39502;SDS011;26970;49.900;10.774;2022-09-28T04:38:34;8.02;;;2.47;;
39502;SDS011;26970;49.900;10.774;2022-09-28T04:41:00;4.10;;;2.38;;
39502;SDS011;26970;49.900;10.774;2022-09-28T04:43:26;6.88;;;2.95;;
39502;SDS011;26970;49.900;10.774;2022-09-28T04:45:56;5.78;;;2.80;;
39502;SDS011;26970;49.900;10.774;2022-09-28T04:48:25;7.13;;;2.92;;
39502;SDS011;26970;49.900;10.774;2022-09-28T04:50:53;3.75;;;2.53;;
39502;SDS011;26970;49.900;10.774;2022-09-28T04:53:23;4.15;;;2.92;;
39502;SDS011;26970;49.900;10.774;2022-09-28T04:58:37;4.55;;;2.83;;
39502;SDS011;26970;49.900;10.774;2022-09-28T05:01:04;5.43;;;2.85;;
39502;SDS011;26970;49.900;10.774;2022-09-28T05:03:31;8.02;;;3.70;;
39502;SDS011;26970;49.900;10.774;2022-09-28T05:05:57;5.28;;;3.42;;
39502;SDS011;26970;49.900;10.774;2022-09-28T05:08:23;6.60;;;2.90;;
39502;SDS011;26970;49.900;10.774;2022-09-28T05:10:55;4.93;;;3.08;;
39502;SDS011;26970;49.900;10.774;2022-09-28T05:13:24;6.32;;;3.53;;
39502;SDS011;26970;49.900;10.774;2022-09-28T05:15:51;4.68;;;3.05;;
39502;SDS011;26970;49.900;10.774;2022-09-28T05:18:18;5.60;;;3.67;;
39502;SDS011;26970;49.900;10.774;2022-09-28T05:20:44;7.30;;;3.28;;
39502;SDS011;26970;49.900;10.774;2022-09-28T05:23:10;5.40;;;3.10;;
39502;SDS011;26970;49.900;10.774;2022-09-28T05:25:37;4.82;;;3.25;;
39502;SDS011;26970;49.900;10.774;2022-09-28T05:28:03;5.20;;;3.10;;
39502;SDS011;26970;49.900;10.774;2022-09-28T05:30:29;6.32;;;3.83;;
39502;SDS011;26970;49.900;10.774;2022-09-28T05:32:54;6.07;;;3.80;;
39502;SDS011;26970;49.900;10.774;2022-09-28T05:35:20;5.38;;;3.45;;
39502;SDS011;26970;49.900;10.774;2022-09-28T05:37:45;6.78;;;3.88;;
39502;SDS011;26970;49.900;10.774;2022-09-28T05:40:11;5.82;;;3.63;;
39502;SDS011;26970;49.900;10.774;2022-09-28T05:42:38;9.35;;;3.78;;
39502;SDS011;26970;49.900;10.774;2022-09-28T05:45:04;5.10;;;3.55;;
39502;SDS011;26970;49.900;10.774;2022-09-28T05:47:30;4.72;;;3.67;;
39502;SDS011;26970;49.900;10.774;2022-09-28T05:50:00;6.43;;;3.92;;
39502;SDS011;26970;49.900;10.774;2022-09-28T05:52:26;10.80;;;3.85;;
39502;SDS011;26970;49.900;10.774;2022-09-28T05:54:51;4.82;;;3.83;;
39502;SDS011;26970;49.900;10.774;2022-09-28T05:57:17;4.72;;;3.30;;
39502;SDS011;26970;49.900;10.774;2022-09-28T05:59:42;7.00;;;3.25;;
39502;SDS011;26970;49.900;10.774;2022-09-28T06:02:08;6.03;;;3.72;;
39502;SDS011;26970;49.900;10.774;2022-09-28T06:04:34;8.60;;;3.83;;
39502;SDS011;26970;49.900;10.774;2022-09-28T06:07:00;6.07;;;3.10;;
39502;SDS011;26970;49.900;10.774;2022-09-28T06:09:25;3.63;;;2.60;;
39502;SDS011;26970;49.900;10.774;2022-09-28T06:11:51;3.83;;;2.70;;
39502;SDS011;26970;49.900;10.774;2022-09-28T06:14:17;5.57;;;2.90;;
39502;SDS011;26970;49.900;10.774;2022-09-28T06:16:43;9.55;;;3.30;;
39502;SDS011;26970;49.900;10.774;2022-09-28T06:19:09;7.00;;;3.00;;
39502;SDS011;26970;49.900;10.774;2022-09-28T06:21:36;5.65;;;2.97;;
39502;SDS011;26970;49.900;10.774;2022-09-28T06:24:02;4.45;;;2.70;;
39502;SDS011;26970;49.900;10.774;2022-09-28T06:26:28;4.43;;;3.13;;
39502;SDS011;26970;49.900;10.774;2022-09-28T06:28:54;5.55;;;2.70;;
39502;SDS011;26970;49.900;10.774;2022-09-28T06:31:20;4.75;;;2.80;;
39502;SDS011;26970;49.900;10.774;2022-09-28T06:33:48;4.00;;;2.75;;
39502;SDS011;26970;49.900;10.774;2022-09-28T06:36:15;4.47;;;2.72;;
39502;SDS011;26970;49.900;10.774;2022-09-28T06:38:41;4.20;;;3.20;;
39502;SDS011;26970;49.900;10.774;2022-09-28T06:41:07;8.43;;;3.20;;
39502;SDS011;26970;49.900;10.774;2022-09-28T06:43:33;5.38;;;2.95;;
39502;SDS011;26970;49.900;10.774;2022-09-28T06:45:59;3.50;;;2.70;;
39502;SDS011;26970;49.900;10.774;2022-09-28T06:48:25;4.10;;;2.75;;
39502;SDS011;26970;49.900;10.774;2022-09-28T06:50:51;5.85;;;2.97;;
39502;SDS011;26970;49.900;10.774;2022-09-28T06:53:16;3.60;;;2.00;;
39502;SDS011;26970;49.900;10.774;2022-09-28T06:55:43;2.90;;;1.70;;
39502;SDS011;26970;49.900;10.774;2022-09-28T06:58:13;2.92;;;1.50;;
39502;SDS011;26970;49.900;10.774;2022-09-28T07:00:41;3.10;;;1.40;;
39502;SDS011;26970;49.900;10.774;2022-09-28T07:03:09;2.75;;;1.50;;
39502;SDS011;26970;49.900;10.774;2022-09-28T07:05:36;1.58;;;1.33;;
39502;SDS011;26970;49.900;10.774;2022-09-28T07:08:05;2.83;;;1.42;;
39502;SDS011;26970;49.900;10.774;2022-09-28T07:10:31;1.48;;;1.27;;
39502;SDS011;26970;49.900;10.774;2022-09-28T07:13:04;2.78;;;1.30;;
39502;SDS011;26970;49.900;10.774;2022-09-28T07:15:30;2.03;;;1.23;;
39502;SDS011;26970;49.900;10.774;2022-09-28T07:18:00;2.50;;;1.40;;
39502;SDS011;26970;49.900;10.774;2022-09-28T07:20:29;1.33;;;1.20;;
39502;SDS011;26970;49.900;10.774;2022-09-28T07:23:00;1.20;;;1.10;;
39502;SDS011;26970;49.900;10.774;2022-09-28T07:25:29;2.80;;;1.33;;
39502;SDS011;26970;49.900;10.774;2022-09-28T07:28:08;3.45;;;1.40;;
39502;SDS011;26970;49.900;10.774;2022-09-28T07:30:34;1.35;;;1.00;;
39502;SDS011;26970;49.900;10.774;2022-09-28T07:33:07;1.98;;;1.35;;
39502;SDS011;26970;49.900;10.774;2022-09-28T07:35:36;1.77;;;1.20;;
39502;SDS011;26970;49.900;10.774;2022-09-28T07:38:05;1.70;;;1.45;;
39502;SDS011;26970;49.900;10.774;2022-09-28T07:40:32;3.20;;;1.30;;
39502;SDS011;26970;49.900;10.774;2022-09-28T07:43:18;2.58;;;1.60;;
39502;SDS011;26970;49.900;10.774;2022-09-28T07:45:45;3.70;;;2.38;;
39502;SDS011;26970;49.900;10.774;2022-09-28T07:48:11;2.55;;;1.20;;
39502;SDS011;26970;49.900;10.774;2022-09-28T07:50:40;2.85;;;1.10;;
39502;SDS011;26970;49.900;10.774;2022-09-28T07:53:16;2.55;;;1.27;;
39502;SDS011;26970;49.900;10.774;2022-09-28T07:55:43;2.72;;;1.30;;
39502;SDS011;26970;49.900;10.774;2022-09-28T07:58:14;2.97;;;1.08;;
39502;SDS011;26970;49.900;10.774;2022-09-28T08:00:39;1.40;;;1.30;;
39502;SDS011;26970;49.900;10.774;2022-09-28T08:03:05;1.65;;;1.30;;
39502;SDS011;26970;49.900;10.774;2022-09-28T08:05:31;3.30;;;1.13;;
39502;SDS011;26970;49.900;10.774;2022-09-28T08:07:59;3.47;;;1.30;;
39502;SDS011;26970;49.900;10.774;2022-09-28T08:10:26;2.78;;;1.38;;
39502;SDS011;26970;49.900;10.774;2022-09-28T08:12:55;1.45;;;0.98;;
39502;SDS011;26970;49.900;10.774;2022-09-28T08:15:21;1.20;;;1.20;;
39502;SDS011;26970;49.900;10.774;2022-09-28T08:17:47;1.83;;;1.20;;
39502;SDS011;26970;49.900;10.774;2022-09-28T08:20:13;1.23;;;1.10;;
39502;SDS011;26970;49.900;10.774;2022-09-28T08:23:02;1.02;;;0.85;;
39502;SDS011;26970;49.900;10.774;2022-09-28T08:25:28;1.33;;;1.20;;
39502;SDS011;26970;49.900;10.774;2022-09-28T08:27:54;3.35;;;1.10;;
39502;SDS011;26970;49.900;10.774;2022-09-28T08:30:20;1.20;;;1.10;;
39502;SDS011;26970;49.900;10.774;2022-09-28T08:32:46;2.35;;;1.27;;
39502;SDS011;26970;49.900;10.774;2022-09-28T08:35:14;1.42;;;1.20;;
39502;SDS011;26970;49.900;10.774;2022-09-28T08:37:40;1.48;;;1.20;;
39502;SDS011;26970;49.900;10.774;2022-09-28T08:40:16;2.00;;;1.35;;
39502;SDS011;26970;49.900;10.774;2022-09-28T08:42:44;2.38;;;1.23;;
39502;SDS011;26970;49.900;10.774;2022-09-28T08:45:10;1.70;;;1.50;;
39502;SDS011;26970;49.900;10.774;2022-09-28T08:50:40;2.70;;;1.67;;
39502;SDS011;26970;49.900;10.774;2022-09-28T08:53:41;5.38;;;1.65;;
39502;SDS011;26970;49.900;10.774;2022-09-28T08:57:00;2.63;;;1.33;;
39502;SDS011;26970;49.900;10.774;2022-09-28T08:59:09;3.53;;;1.75;;
39502;SDS011;26970;49.900;10.774;2022-09-28T09:01:40;2.22;;;1.42;;
39502;SDS011;26970;49.900;10.774;2022-09-28T09:04:20;2.38;;;1.45;;
39502;SDS011;26970;49.900;10.774;2022-09-28T09:09:37;3.83;;;1.80;;
39502;SDS011;26970;49.900;10.774;2022-09-28T09:12:17;3.17;;;1.52;;
39502;SDS011;26970;49.900;10.774;2022-09-28T09:20:58;5.28;;;2.22;;
39502;SDS011;26970;49.900;10.774;2022-09-28T09:23:37;2.08;;;1.58;;
39502;SDS011;26970;49.900;10.774;2022-09-28T09:31:21;4.57;;;2.20;;
39502;SDS011;26970;49.900;10.774;2022-09-28T09:34:03;4.00;;;1.90;;
39502;SDS011;26970;49.900;10.774;2022-09-28T09:36:45;5.00;;;1.80;;
39502;SDS011;26970;49.900;10.774;2022-09-28T09:42:33;2.95;;;1.52;;
39502;SDS011;26970;49.900;10.774;2022-09-28T09:47:57;2.75;;;1.80;;
39502;SDS011;26970;49.900;10.774;2022-09-28T09:53:14;4.60;;;1.90;;
39502;SDS011;26970;49.900;10.774;2022-09-28T09:55:43;4.38;;;1.75;;
39502;SDS011;26970;49.900;10.774;2022-09-28T09:58:12;4.05;;;1.80;;
39502;SDS011;26970;49.900;10.774;2022-09-28T10:00:45;2.60;;;1.80;;
39502;SDS011;26970;49.900;10.774;2022-09-28T10:03:24;4.30;;;1.80;;
39502;SDS011;26970;49.900;10.774;2022-09-28T10:06:02;5.82;;;1.70;;
39502;SDS011;26970;49.900;10.774;2022-09-28T10:08:33;2.33;;;1.55;;
39502;SDS011;26970;49.900;10.774;2022-09-28T10:11:07;4.60;;;1.80;;
39502;SDS011;26970;49.900;10.774;2022-09-28T10:13:33;3.33;;;1.90;;
39502;SDS011;26970;49.900;10.774;2022-09-28T10:15:59;3.08;;;1.73;;
39502;SDS011;26970;49.900;10.774;2022-09-28T10:18:25;6.55;;;3.22;;
39502;SDS011;26970;49.900;10.774;2022-09-28T10:20:52;5.68;;;3.67;;
39502;SDS011;26970;49.900;10.774;2022-09-28T10:23:28;3.13;;;2.20;;
39502;SDS011;26970;49.900;10.774;2022-09-28T10:26:08;3.42;;;2.30;;
39502;SDS011;26970;49.900;10.774;2022-09-28T10:28:42;4.20;;;2.63;;
39502;SDS011;26970;49.900;10.774;2022-09-28T10:33:59;6.28;;;3.90;;
39502;SDS011;26970;49.900;10.774;2022-09-28T10:36:24;6.60;;;4.18;;
39502;SDS011;26970;49.900;10.774;2022-09-28T10:38:50;5.00;;;3.00;;
39502;SDS011;26970;49.900;10.774;2022-09-28T10:41:17;4.47;;;2.50;;
39502;SDS011;26970;49.900;10.774;2022-09-28T10:43:53;9.98;;;6.35;;
39502;SDS011;26970;49.900;10.774;2022-09-28T10:46:30;4.82;;;2.67;;
39502;SDS011;26970;49.900;10.774;2022-09-28T10:49:02;12.93;;;7.35;;
39502;SDS011;26970;49.900;10.774;2022-09-28T10:54:17;3.13;;;1.90;;
39502;SDS011;26970;49.900;10.774;2022-09-28T10:56:50;6.30;;;1.80;;
39502;SDS011;26970;49.900;10.774;2022-09-28T11:04:27;6.30;;;2.83;;
39502;SDS011;26970;49.900;10.774;2022-09-28T11:06:54;6.65;;;2.25;;
39502;SDS011;26970;49.900;10.774;2022-09-28T11:09:30;6.00;;;3.28;;
39502;SDS011;26970;49.900;10.774;2022-09-28T11:11:58;3.78;;;2.00;;
39502;SDS011;26970;49.900;10.774;2022-09-28T11:19:43;6.40;;;3.70;;
39502;SDS011;26970;49.900;10.774;2022-09-28T11:22:25;4.60;;;2.97;;
39502;SDS011;26970;49.900;10.774;2022-09-28T11:27:41;3.33;;;2.03;;
39502;SDS011;26970;49.900;10.774;2022-09-28T11:30:28;7.07;;;4.38;;
39502;SDS011;26970;49.900;10.774;2022-09-28T11:33:14;5.70;;;3.70;;
39502;SDS011;26970;49.900;10.774;2022-09-28T11:35:44;2.60;;;2.00;;
39502;SDS011;26970;49.900;10.774;2022-09-28T11:38:36;7.32;;;5.20;;
39502;SDS011;26970;49.900;10.774;2022-09-28T11:47:06;3.83;;;2.40;;
39502;SDS011;26970;49.900;10.774;2022-09-28T11:49:41;4.28;;;2.70;;
39502;SDS011;26970;49.900;10.774;2022-09-28T11:52:17;2.92;;;1.92;;
39502;SDS011;26970;49.900;10.774;2022-09-28T11:57:39;2.50;;;1.40;;
39502;SDS011;26970;49.900;10.774;2022-09-28T12:00:18;5.40;;;2.55;;
39502;SDS011;26970;49.900;10.774;2022-09-28T12:06:02;2.38;;;1.55;;
39502;SDS011;26970;49.900;10.774;2022-09-28T12:08:34;3.13;;;1.60;;
39502;SDS011;26970;49.900;10.774;2022-09-28T12:13:45;1.30;;;1.20;;
39502;SDS011;26970;49.900;10.774;2022-09-28T12:16:24;1.90;;;1.45;;
39502;SDS011;26970;49.900;10.774;2022-09-28T12:19:04;3.22;;;1.40;;
39502;SDS011;26970;49.900;10.774;2022-09-28T12:21:52;1.65;;;1.15;;
39502;SDS011;26970;49.900;10.774;2022-09-28T12:24:29;2.22;;;1.40;;
39502;SDS011;26970;49.900;10.774;2022-09-28T12:26:58;1.75;;;1.30;;
39502;SDS011;26970;49.900;10.774;2022-09-28T12:35:09;2.60;;;1.35;;
39502;SDS011;26970;49.900;10.774;2022-09-28T12:52:27;3.08;;;1.30;;
39502;SDS011;26970;49.900;10.774;2022-09-28T12:55:16;6.60;;;1.30;;
39502;SDS011;26970;49.900;10.774;2022-09-28T13:09:22;3.38;;;1.58;;
39502;SDS011;26970;49.900;10.774;2022-09-28T13:11:54;1.30;;;1.10;;
39502;SDS011;26970;49.900;10.774;2022-09-28T13:17:37;2.15;;;1.15;;
39502;SDS011;26970;49.900;10.774;2022-09-28T13:20:12;1.73;;;0.95;;
39502;SDS011;26970;49.900;10.774;2022-09-28T13:23:18;3.38;;;1.60;;
39502;SDS011;26970;49.900;10.774;2022-09-28T13:25:49;3.20;;;1.55;;
39502;SDS011;26970;49.900;10.774;2022-09-28T13:30:46;2.08;;;1.33;;
39502;SDS011;26970;49.900;10.774;2022-09-28T13:33:16;1.98;;;1.77;;
39502;SDS011;26970;49.900;10.774;2022-09-28T13:35:47;4.20;;;3.42;;
39502;SDS011;26970;49.900;10.774;2022-09-28T13:49:36;1.35;;;0.90;;
39502;SDS011;26970;49.900;10.774;2022-09-28T13:55:20;2.50;;;1.60;;
39502;SDS011;26970;49.900;10.774;2022-09-28T13:57:59;2.30;;;1.30;;
39502;SDS011;26970;49.900;10.774;2022-09-28T14:00:37;1.35;;;1.20;;
39502;SDS011;26970;49.900;10.774;2022-09-28T14:03:42;3.83;;;2.20;;
39502;SDS011;26970;49.900;10.774;2022-09-28T14:06:35;6.70;;;4.55;;
39502;SDS011;26970;49.900;10.774;2022-09-28T14:11:58;6.28;;;3.63;;
39502;SDS011;26970;49.900;10.774;2022-09-28T14:14:29;4.22;;;2.30;;
39502;SDS011;26970;49.900;10.774;2022-09-28T14:19:48;5.13;;;2.47;;
39502;SDS011;26970;49.900;10.774;2022-09-28T14:25:23;5.40;;;2.60;;
39502;SDS011;26970;49.900;10.774;2022-09-28T14:31:05;8.57;;;5.38;;
39502;SDS011;26970;49.900;10.774;2022-09-28T14:33:35;3.97;;;1.52;;
39502;SDS011;26970;49.900;10.774;2022-09-28T14:36:06;3.90;;;2.30;;
39502;SDS011;26970;49.900;10.774;2022-09-28T14:39:20;4.00;;;2.35;;
39502;SDS011;26970;49.900;10.774;2022-09-28T14:42:16;6.47;;;4.00;;
39502;SDS011;26970;49.900;10.774;2022-09-28T14:45:17;6.72;;;4.47;;
39502;SDS011;26970;49.900;10.774;2022-09-28T14:47:39;5.43;;;3.33;;
39502;SDS011;26970;49.900;10.774;2022-09-28T14:50:27;8.93;;;6.10;;
39502;SDS011;26970;49.900;10.774;2022-09-28T14:53:03;6.18;;;4.00;;
39502;SDS011;26970;49.900;10.774;2022-09-28T14:55:33;4.47;;;2.05;;
39502;SDS011;26970;49.900;10.774;2022-09-28T14:58:16;7.85;;;5.18;;
39502;SDS011;26970;49.900;10.774;2022-09-28T15:00:53;3.50;;;1.83;;
39502;SDS011;26970;49.900;10.774;2022-09-28T15:03:29;7.32;;;2.35;;
39502;SDS011;26970;49.900;10.774;2022-09-28T15:05:57;6.10;;;2.60;;
39502;SDS011;26970;49.900;10.774;2022-09-28T15:08:34;5.10;;;2.30;;
39502;SDS011;26970;49.900;10.774;2022-09-28T15:11:02;8.48;;;4.60;;
39502;SDS011;26970;49.900;10.774;2022-09-28T15:13:28;4.78;;;2.30;;
39502;SDS011;26970;49.900;10.774;2022-09-28T15:15:59;4.07;;;1.90;;
39502;SDS011;26970;49.900;10.774;2022-09-28T15:21:18;2.33;;;1.00;;
39502;SDS011;26970;49.900;10.774;2022-09-28T15:23:44;2.00;;;1.40;;
39502;SDS011;26970;49.900;10.774;2022-09-28T15:26:21;1.65;;;1.02;;
39502;SDS011;26970;49.900;10.774;2022-09-28T15:28:51;2.70;;;1.05;;
39502;SDS011;26970;49.900;10.774;2022-09-28T15:31:19;1.38;;;0.82;;
39502;SDS011;26970;49.900;10.774;2022-09-28T15:33:46;1.20;;;1.10;;
39502;SDS011;26970;49.900;10.774;2022-09-28T15:36:41;2.83;;;1.45;;
39502;SDS011;26970;49.900;10.774;2022-09-28T15:39:20;1.77;;;1.08;;
39502;SDS011;26970;49.900;10.774;2022-09-28T15:41:51;6.68;;;2.00;;
39502;SDS011;26970;49.900;10.774;2022-09-28T15:44:26;1.70;;;1.08;;
39502;SDS011;26970;49.900;10.774;2022-09-28T15:52:27;3.85;;;1.20;;
39502;SDS011;26970;49.900;10.774;2022-09-28T15:55:16;2.33;;;1.00;;
39502;SDS011;26970;49.900;10.774;2022-09-28T15:57:46;2.83;;;1.13;;
39502;SDS011;26970;49.900;10.774;2022-09-28T16:00:25;1.80;;;1.10;;
39502;SDS011;26970;49.900;10.774;2022-09-28T16:05:45;2.33;;;1.10;;
39502;SDS011;26970;49.900;10.774;2022-09-28T16:08:39;5.57;;;1.00;;
39502;SDS011;26970;49.900;10.774;2022-09-28T16:13:53;1.73;;;0.90;;
39502;SDS011;26970;49.900;10.774;2022-09-28T16:19:21;3.17;;;1.23;;
39502;SDS011;26970;49.900;10.774;2022-09-28T16:21:51;1.17;;;1.05;;
39502;SDS011;26970;49.900;10.774;2022-09-28T16:24:29;3.47;;;1.63;;
39502;SDS011;26970;49.900;10.774;2022-09-28T16:33:25;1.85;;;1.10;;
39502;SDS011;26970;49.900;10.774;2022-09-28T16:36:26;3.78;;;1.30;;
39502;SDS011;26970;49.900;10.774;2022-09-28T16:39:11;3.83;;;1.20;;
39502;SDS011;26970;49.900;10.774;2022-09-28T16:41:54;3.75;;;1.20;;
39502;SDS011;26970;49.900;10.774;2022-09-28T16:47:04;1.35;;;1.00;;
39502;SDS011;26970;49.900;10.774;2022-09-28T16:49:33;3.50;;;1.10;;
39502;SDS011;26970;49.900;10.774;2022-09-28T16:52:07;3.28;;;1.83;;
39502;SDS011;26970;49.900;10.774;2022-09-28T16:54:36;2.70;;;1.75;;
39502;SDS011;26970;49.900;10.774;2022-09-28T16:57:23;3.45;;;1.60;;
39502;SDS011;26970;49.900;10.774;2022-09-28T16:59:49;2.22;;;1.27;;
39502;SDS011;26970;49.900;10.774;2022-09-28T17:02:23;3.15;;;1.40;;
39502;SDS011;26970;49.900;10.774;2022-09-28T17:04:52;2.80;;;1.52;;
39502;SDS011;26970;49.900;10.774;2022-09-28T17:07:19;5.18;;;1.30;;
39502;SDS011;26970;49.900;10.774;2022-09-28T17:09:47;1.90;;;1.30;;
39502;SDS011;26970;49.900;10.774;2022-09-28T17:12:21;6.30;;;2.22;;
39502;SDS011;26970;49.900;10.774;2022-09-28T17:14:52;3.80;;;1.90;;
39502;SDS011;26970;49.900;10.774;2022-09-28T17:17:20;3.80;;;2.40;;
39502;SDS011;26970;49.900;10.774;2022-09-28T17:19:46;3.88;;;1.80;;
39502;SDS011;26970;49.900;10.774;2022-09-28T17:22:12;4.47;;;1.80;;
39502;SDS011;26970;49.900;10.774;2022-09-28T17:24:38;5.13;;;1.60;;
39502;SDS011;26970;49.900;10.774;2022-09-28T17:27:11;2.25;;;1.42;;
39502;SDS011;26970;49.900;10.774;2022-09-28T17:29:45;4.05;;;1.60;;
39502;SDS011;26970;49.900;10.774;2022-09-28T17:32:24;2.45;;;1.55;;
39502;SDS011;26970;49.900;10.774;2022-09-28T17:35:02;3.95;;;1.42;;
39502;SDS011;26970;49.900;10.774;2022-09-28T17:37:32;2.55;;;1.20;;
39502;SDS011;26970;49.900;10.774;2022-09-28T17:40:26;1.48;;;1.05;;
39502;SDS011;26970;49.900;10.774;2022-09-28T17:43:03;3.95;;;1.70;;
39502;SDS011;26970;49.900;10.774;2022-09-28T17:45:34;2.17;;;1.55;;
39502;SDS011;26970;49.900;10.774;2022-09-28T17:48:11;3.38;;;1.60;;
39502;SDS011;26970;49.900;10.774;2022-09-28T17:50:42;2.90;;;1.80;;
39502;SDS011;26970;49.900;10.774;2022-09-28T17:53:27;3.03;;;1.88;;
39502;SDS011;26970;49.900;10.774;2022-09-28T17:55:52;3.45;;;1.77;;
39502;SDS011;26970;49.900;10.774;2022-09-28T17:58:24;3.10;;;1.83;;
39502;SDS011;26970;49.900;10.774;2022-09-28T18:00:50;2.92;;;1.67;;
39502;SDS011;26970;49.900;10.774;2022-09-28T18:03:19;2.85;;;1.77;;
39502;SDS011;26970;49.900;10.774;2022-09-28T18:06:06;4.50;;;1.83;;
39502;SDS011;26970;49.900;10.774;2022-09-28T18:08:46;3.97;;;2.17;;
39502;SDS011;26970;49.900;10.774;2022-09-28T18:11:17;3.92;;;1.77;;